Time;durP1;ratioP1;P1;durP2;ratioP2;P2;SDS_P1;SDS_P2;PMS_P1;PMS_P2;Temp;Humidity;BMP_temperature;BMP_pressure;BME280_temperature;BME280_humidity;BME280_pressure;Samples;Min_cycle;Max_cycle;Signal;HPM_P1;HPM_P2
2024/01/25 00:00:41;;;;;;;26.00;4.30;;;;;;;-146.27;80.79;43642.19;5069878;28;20037;-72
2024/01/25 00:03:06;;;;;;;37.40;6.10;;;;;;;-146.27;81.03;43596.44;5070060;28;20024;-72
2024/01/25 00:05:32;;;;;;;26.77;4.00;;;;;;;-146.27;81.65;43540.75;5068375;28;20028;-73
2024/01/25 00:07:57;;;;;;;26.00;5.13;;;;;;;-146.27;81.20;43602.41;5070009;28;20028;-73
2024/01/25 00:10:23;;;;;;;31.35;3.95;;;;;;;-146.27;80.42;43550.69;5068895;28;20028;-72
2024/01/25 00:12:48;;;;;;;30.63;5.20;;;;;;;-146.27;80.83;43556.66;5069616;28;20389;-72
2024/01/25 00:15:14;;;;;;;28.42;5.57;;;;;;;-146.27;80.56;43522.84;5069304;28;20029;-72
2024/01/25 00:17:39;;;;;;;39.70;6.40;;;;;;;-146.27;81.22;43538.75;5068439;28;20502;-71
2024/01/25 00:20:05;;;;;;;42.50;5.35;;;;;;;-146.27;80.70;43510.91;5068756;28;20021;-73
2024/01/25 00:22:31;;;;;;;28.60;4.03;;;;;;;-146.27;81.06;43534.78;5049618;28;20366;-73
2024/01/25 00:24:57;;;;;;;39.22;4.63;;;;;;;-146.27;80.44;43518.88;5061274;28;20033;-73
2024/01/25 00:27:22;;;;;;;44.83;4.65;;;;;;;-146.27;81.22;43502.94;5068707;28;20032;-72
2024/01/25 00:29:48;;;;;;;34.55;4.03;;;;;;;-146.27;80.73;43536.75;5062435;28;20029;-72
2024/01/25 00:32:13;;;;;;;29.27;5.85;;;;;;;-146.27;81.19;43502.94;5070268;28;20039;-72
2024/01/25 00:34:39;;;;;;;31.45;5.40;;;;;;;-146.27;80.99;43496.97;5072657;28;20048;-71
2024/01/25 00:37:04;;;;;;;34.42;4.68;;;;;;;-146.27;80.92;43510.91;5072814;28;20036;-72
2024/01/25 00:39:30;;;;;;;32.10;7.93;;;;;;;-146.27;80.73;43518.88;5073031;28;20024;-72
2024/01/25 00:42:02;;;;;;;31.85;4.35;;;;;;;-146.27;80.81;43502.94;5072919;28;20476;-72
2024/01/25 00:44:28;;;;;;;36.03;7.07;;;;;;;-146.27;81.05;43510.91;5071069;28;20399;-72
2024/01/25 00:46:54;;;;;;;31.55;4.55;;;;;;;-146.27;81.46;43502.94;5072671;28;20025;-71
2024/01/25 00:49:19;;;;;;;28.17;3.58;;;;;;;-146.27;82.02;43471.13;5072839;28;20024;-71
2024/01/25 00:51:47;;;;;;;21.85;3.65;;;;;;;-146.27;81.81;43475.09;5072727;28;20032;-71
2024/01/25 00:54:16;;;;;;;48.88;6.10;;;;;;;-146.27;82.22;43427.34;5072326;28;20024;-71
2024/01/25 00:56:42;;;;;;;27.55;4.40;;;;;;;-146.27;81.80;43399.50;5072460;28;20032;-72
2024/01/25 00:59:07;;;;;;;30.60;4.13;;;;;;;-146.27;81.65;43371.66;5070758;28;20059;-72
2024/01/25 01:01:33;;;;;;;28.85;4.80;;;;;;;-146.27;82.00;43395.53;5071538;28;20025;-72
2024/01/25 01:03:59;;;;;;;29.38;4.90;;;;;;;-146.27;81.46;43375.63;5072318;28;20025;-72
2024/01/25 01:06:25;;;;;;;32.08;5.00;;;;;;;-146.27;81.81;43389.56;5072678;28;20560;-72
2024/01/25 01:08:51;;;;;;;36.45;5.97;;;;;;;-146.27;80.99;43329.88;5071150;28;20484;-72
2024/01/25 01:11:17;;;;;;;26.75;3.58;;;;;;;-146.27;81.25;43367.69;5072397;28;20428;-72
2024/01/25 01:13:42;;;;;;;35.90;4.72;;;;;;;-146.27;82.46;43367.69;5072067;28;20016;-72
2024/01/25 01:16:08;;;;;;;27.10;4.80;;;;;;;-146.27;81.92;43319.94;5072035;28;20115;-72
2024/01/25 01:18:34;;;;;;;35.10;6.07;;;;;;;-146.27;81.43;43298.06;5071392;28;20032;-72
2024/01/25 01:20:59;;;;;;;43.05;4.88;;;;;;;-146.27;82.47;43355.75;5069958;28;20086;-72
2024/01/25 01:23:25;;;;;;;25.83;4.68;;;;;;;-146.27;81.88;43292.09;5071973;28;20025;-72
2024/01/25 01:25:50;;;;;;;33.83;4.47;;;;;;;-146.27;82.32;43317.94;5072024;28;20024;-73
2024/01/25 01:28:16;;;;;;;32.53;5.63;;;;;;;-146.27;81.76;43242.38;5071639;28;20500;-72
2024/01/25 01:30:42;;;;;;;35.95;5.15;;;;;;;-146.27;82.06;43270.22;5071924;28;20078;-72
2024/01/25 01:33:10;;;;;;;26.58;3.58;;;;;;;-146.27;82.22;43268.22;5071798;28;20036;-73
2024/01/25 01:35:36;;;;;;;33.72;4.60;;;;;;;-146.27;82.58;43236.41;5059557;28;20477;-72
2024/01/25 01:38:01;;;;;;;29.48;4.40;;;;;;;-146.27;82.28;43220.47;5071700;28;20033;-71
2024/01/25 01:40:27;;;;;;;34.80;4.75;;;;;;;-146.27;81.96;43282.16;5071908;28;20086;-72
2024/01/25 01:42:59;;;;;;;36.28;5.53;;;;;;;-146.27;81.93;43188.66;5071429;28;20125;-72
2024/01/25 01:45:24;;;;;;;31.85;4.93;;;;;;;-146.27;82.79;43204.56;5071559;28;20447;-72
2024/01/25 01:47:49;;;;;;;28.60;4.68;;;;;;;-146.27;83.15;43142.91;5071468;28;20024;-72
2024/01/25 01:50:15;;;;;;;34.17;6.07;;;;;;;-146.27;83.64;43087.22;5069780;28;20029;-72
2024/01/25 01:52:41;;;;;;;36.83;5.38;;;;;;;-146.27;83.03;43041.47;5070892;28;20115;-72
2024/01/25 01:55:07;;;;;;;39.25;5.72;;;;;;;-146.27;83.88;43073.28;5071409;28;20043;-71
2024/01/25 01:57:34;;;;;;;23.27;4.90;;;;;;;-146.27;84.12;42971.84;5071161;28;20025;-72
2024/01/25 02:00:04;;;;;;;37.13;4.25;;;;;;;-146.27;83.35;42961.91;5071595;28;20056;-72
2024/01/25 02:02:29;;;;;;;47.72;5.53;;;;;;;-146.27;83.34;42957.94;5070097;28;20024;-72
2024/01/25 02:04:54;;;;;;;35.33;5.40;;;;;;;-146.27;83.16;42959.91;5070358;28;20040;-72
2024/01/25 02:07:20;;;;;;;31.85;4.88;;;;;;;-146.27;83.60;42938.03;5070566;28;20024;-71
2024/01/25 02:09:45;;;;;;;31.52;4.63;;;;;;;-146.27;83.97;42912.19;5052684;28;20032;-72
2024/01/25 02:12:14;;;;;;;31.50;5.15;;;;;;;-146.27;83.76;42924.13;5051017;28;20024;-71
2024/01/25 02:14:41;;;;;;;41.63;4.80;;;;;;;-146.27;84.34;42886.31;5052396;28;20037;-72
2024/01/25 02:17:06;;;;;;;31.35;4.85;;;;;;;-146.27;84.18;42858.47;5070988;28;20020;-73
2024/01/25 02:19:31;;;;;;;28.63;3.90;;;;;;;-146.27;84.20;42814.72;5070618;28;20111;-72
2024/01/25 02:21:58;;;;;;;41.05;6.82;;;;;;;-146.27;84.29;42812.72;5069191;28;20070;-72
2024/01/25 02:24:24;;;;;;;42.30;4.85;;;;;;;-146.27;83.58;42790.84;5067729;28;20666;-72
2024/01/25 02:26:49;;;;;;;32.22;4.55;;;;;;;-146.27;83.67;42802.78;5067787;28;20127;-72
2024/01/25 02:29:15;;;;;;;32.80;3.85;;;;;;;-146.27;83.29;42852.50;5069872;28;20038;-72
2024/01/25 02:31:41;;;;;;;36.28;5.15;;;;;;;-146.27;83.88;42818.69;5069860;28;20031;-72
2024/01/25 02:34:06;;;;;;;36.78;4.30;;;;;;;-146.27;84.34;42802.78;5069061;28;20029;-72
2024/01/25 02:36:32;;;;;;;36.45;4.88;;;;;;;-146.27;83.94;42800.81;5067108;28;20030;-71
2024/01/25 02:38:57;;;;;;;37.55;4.82;;;;;;;-146.27;83.50;42784.88;5052591;28;20036;-72
2024/01/25 02:41:22;;;;;;;38.00;4.95;;;;;;;-146.27;83.50;42830.63;5070128;28;20028;-71
2024/01/25 02:43:48;;;;;;;39.10;5.68;;;;;;;-146.27;83.17;42844.56;5067987;28;20405;-71
2024/01/25 02:46:13;;;;;;;29.40;4.40;;;;;;;-146.27;83.46;42830.63;5050726;28;20546;-72
2024/01/25 02:48:38;;;;;;;30.27;4.50;;;;;;;-146.27;83.88;42810.75;5050173;28;20090;-71
2024/01/25 02:51:04;;;;;;;32.45;5.20;;;;;;;-146.27;83.51;42818.69;5063192;28;20017;-70
2024/01/25 02:53:29;;;;;;;38.35;4.72;;;;;;;-146.27;83.45;42866.44;5063130;28;20128;-71
2024/01/25 02:55:55;;;;;;;29.65;5.28;;;;;;;-146.27;82.96;42890.31;5056760;28;20024;-71
2024/01/25 02:58:20;;;;;;;42.00;5.75;;;;;;;-146.27;82.97;42868.41;5064045;28;20028;-72
2024/01/25 03:00:46;;;;;;;38.90;5.22;;;;;;;-146.27;82.76;42946.00;5062075;28;20451;-73
2024/01/25 03:03:11;;;;;;;34.55;4.88;;;;;;;-146.27;82.93;42944.00;5056283;28;20477;-72
2024/01/25 03:05:36;;;;;;;31.30;4.72;;;;;;;-146.27;83.14;42961.91;5050026;28;20013;-71
2024/01/25 03:08:02;;;;;;;31.58;5.10;;;;;;;-146.27;83.41;42932.06;5054198;28;20055;-71
2024/01/25 03:10:27;;;;;;;30.65;3.90;;;;;;;-146.27;83.41;42938.03;5061177;28;20400;-71
2024/01/25 03:12:53;;;;;;;39.00;4.18;;;;;;;-146.27;83.03;42961.91;5063729;28;20021;-71
2024/01/25 03:15:18;;;;;;;28.67;4.25;;;;;;;-146.27;82.99;42989.75;5065925;28;20031;-72
2024/01/25 03:17:43;;;;;;;27.58;4.70;;;;;;;-146.27;83.09;42977.81;5052154;28;20078;-71
2024/01/25 03:20:09;;;;;;;31.40;4.07;;;;;;;-146.27;83.35;42959.91;5062494;28;20020;-71
2024/01/25 03:22:35;;;;;;;39.67;4.40;;;;;;;-146.27;83.85;42940.03;5070051;28;20033;-73
2024/01/25 03:25:00;;;;;;;30.45;4.30;;;;;;;-146.27;83.45;42983.78;5058424;28;20028;-72
2024/01/25 03:27:26;;;;;;;31.70;4.90;;;;;;;-146.27;83.10;43003.69;5051200;28;20068;-73
2024/01/25 03:29:51;;;;;;;17.33;2.78;;;;;;;-146.27;83.17;43039.47;5063685;28;20172;-73
2024/01/25 03:32:16;;;;;;;32.67;4.32;;;;;;;-146.27;83.53;43021.56;5068596;28;20035;-72
2024/01/25 03:34:42;;;;;;;23.13;4.07;;;;;;;-146.27;83.60;43051.41;5052847;28;20025;-72
2024/01/25 03:37:07;;;;;;;34.80;3.97;;;;;;;-146.27;84.00;43007.66;5064135;28;20032;-71
2024/01/25 03:39:33;;;;;;;25.65;3.60;;;;;;;-146.27;84.30;42981.78;5062465;28;20025;-72
2024/01/25 03:41:58;;;;;;;33.72;4.75;;;;;;;-146.27;84.54;42914.16;5065558;28;20025;-72
2024/01/25 03:44:24;;;;;;;37.78;4.55;;;;;;;-146.27;84.59;42942.00;5062842;28;20477;-72
2024/01/25 03:46:49;;;;;;;35.58;4.60;;;;;;;-146.27;84.80;42894.28;5066832;28;20037;-71
2024/01/25 03:49:14;;;;;;;28.83;4.25;;;;;;;-146.27;85.13;42882.34;5068823;28;20028;-71
2024/01/25 03:51:40;;;;;;;30.30;4.03;;;;;;;-146.27;84.65;42908.19;5065538;28;20043;-73
2024/01/25 03:54:05;;;;;;;31.15;4.57;;;;;;;-146.27;84.63;42878.38;5055405;28;20025;-73
2024/01/25 03:56:30;;;;;;;41.60;4.53;;;;;;;-146.27;84.69;42900.25;5066062;28;20035;-72
2024/01/25 03:58:56;;;;;;;37.53;4.55;;;;;;;-146.27;84.79;42890.31;5052336;28;20029;-74
2024/01/25 04:01:21;;;;;;;31.77;3.60;;;;;;;-146.27;85.23;42870.41;5064177;28;20508;-71
2024/01/25 04:03:46;;;;;;;42.45;4.78;;;;;;;-146.27;85.92;42755.06;5061499;28;20066;-73
2024/01/25 04:06:12;;;;;;;30.02;4.07;;;;;;;-146.27;85.35;42790.84;5050542;28;20028;-73
2024/01/25 04:08:37;;;;;;;26.23;3.67;;;;;;;-146.27;85.99;42782.91;5053424;28;20027;-72
2024/01/25 04:11:03;;;;;;;29.20;4.47;;;;;;;-146.27;85.67;42780.91;5055385;28;20040;-72
2024/01/25 04:13:28;;;;;;;28.70;3.92;;;;;;;-146.27;85.72;42767.00;5056382;28;20024;-72
2024/01/25 04:15:54;;;;;;;28.05;5.00;;;;;;;-146.27;85.84;42751.06;5063680;28;20496;-71
2024/01/25 04:18:19;;;;;;;37.30;4.55;;;;;;;-146.27;85.86;42786.88;5073204;28;20112;-72
2024/01/25 04:20:44;;;;;;;23.55;3.28;;;;;;;-146.27;85.42;42814.72;5059776;28;20021;-72
2024/01/25 04:23:10;;;;;;;26.05;4.40;;;;;;;-146.27;85.52;42790.84;5057376;28;20025;-72
2024/01/25 04:25:35;;;;;;;21.90;4.18;;;;;;;-146.27;86.11;42759.03;5052904;28;20024;-72
2024/01/25 04:28:01;;;;;;;29.45;3.35;;;;;;;-146.27;86.21;42747.09;5052823;28;20132;-72
2024/01/25 04:30:27;;;;;;;21.60;4.13;;;;;;;-146.27;86.30;42731.19;5055403;28;20073;-71
2024/01/25 04:32:52;;;;;;;34.40;3.92;;;;;;;-146.27;86.10;42780.91;5068139;28;20032;-72
2024/01/25 04:35:18;;;;;;;13.02;3.10;;;;;;;-146.27;86.32;42723.22;5058904;28;20029;-71
2024/01/25 04:37:43;;;;;;;29.85;3.92;;;;;;;-146.27;86.11;42757.03;5056308;28;20086;-71
2024/01/25 04:40:09;;;;;;;24.23;4.15;;;;;;;-146.27;86.17;42733.19;5057365;28;20017;-73
2024/01/25 04:42:34;;;;;;;35.05;4.55;;;;;;;-146.27;86.38;42727.22;5072816;28;20477;-72
2024/01/25 04:44:59;;;;;;;27.80;4.03;;;;;;;-146.27;86.63;42723.22;5061765;28;20028;-72
2024/01/25 04:47:25;;;;;;;30.92;4.60;;;;;;;-146.27;86.13;42794.84;5055059;28;20499;-71
2024/01/25 04:49:50;;;;;;;29.08;3.88;;;;;;;-146.27;86.37;42794.84;5059492;28;20507;-71
2024/01/25 04:52:16;;;;;;;29.67;4.38;;;;;;;-146.27;86.40;42727.22;5063496;28;20021;-72
2024/01/25 04:54:41;;;;;;;25.88;3.58;;;;;;;-146.27;86.25;42798.81;5064154;28;20047;-71
2024/01/25 04:57:07;;;;;;;28.90;3.85;;;;;;;-146.27;86.46;42768.97;5072266;28;20382;-71
2024/01/25 04:59:33;;;;;;;31.52;4.75;;;;;;;-146.27;86.59;42755.06;5064125;28;20103;-72
2024/01/25 05:01:59;;;;;;;24.10;3.53;;;;;;;-146.27;87.13;42697.38;5055926;28;20021;-71
2024/01/25 05:04:24;;;;;;;30.38;3.35;;;;;;;-146.27;87.10;42715.28;5055977;28;20036;-71
2024/01/25 05:06:49;;;;;;;22.15;3.50;;;;;;;-146.27;86.90;42737.16;5060135;28;20513;-72
2024/01/25 05:09:15;;;;;;;23.02;3.60;;;;;;;-146.27;87.13;42709.31;5059559;28;20031;-71
2024/01/25 05:11:40;;;;;;;26.27;3.80;;;;;;;-146.27;87.06;42751.06;5052421;28;20032;-71
2024/01/25 05:14:06;;;;;;;39.95;3.80;;;;;;;-146.27;87.00;42755.06;5054471;28;20021;-72
2024/01/25 05:16:32;;;;;;;27.63;5.20;;;;;;;-146.27;87.26;42751.06;5059368;28;20029;-71
2024/01/25 05:18:57;;;;;;;29.23;4.10;;;;;;;-146.27;86.86;42774.94;5070044;28;20020;-72
2024/01/25 05:21:23;;;;;;;33.33;4.43;;;;;;;-146.27;86.89;42774.94;5061066;28;20048;-73
2024/01/25 05:23:48;;;;;;;36.42;4.40;;;;;;;-146.27;87.18;42739.16;5071314;28;20048;-71
2024/01/25 05:26:15;;;;;;;25.25;4.38;;;;;;;-146.27;87.13;42737.16;5070951;28;20028;-71
2024/01/25 05:28:40;;;;;;;30.77;4.63;;;;;;;-146.27;87.14;42753.06;5071246;28;20063;-72
2024/01/25 05:31:09;;;;;;;29.58;4.40;;;;;;;-146.27;87.68;42673.50;5071880;28;20028;-72
2024/01/25 05:33:34;;;;;;;31.73;3.78;;;;;;;-146.27;86.86;42715.28;5070806;28;20078;-71
2024/01/25 05:36:00;;;;;;;38.65;4.78;;;;;;;-146.27;87.29;42663.56;5063182;28;20497;-72
2024/01/25 05:38:25;;;;;;;31.52;4.35;;;;;;;-146.27;88.04;42639.69;5065757;28;20044;-72
2024/01/25 05:40:51;;;;;;;33.58;3.75;;;;;;;-146.27;87.76;42655.63;5061930;28;20111;-72
2024/01/25 05:43:16;;;;;;;30.08;4.15;;;;;;;-146.27;87.91;42635.72;5051692;28;20066;-72
2024/01/25 05:45:41;;;;;;;30.60;4.72;;;;;;;-146.27;87.80;42653.63;5054504;28;20052;-71
2024/01/25 05:48:07;;;;;;;30.80;4.65;;;;;;;-146.27;88.19;42603.91;5070077;28;20137;-72
2024/01/25 05:50:33;;;;;;;26.33;4.50;;;;;;;-146.27;88.46;42599.94;5053592;28;20021;-72
2024/01/25 05:52:58;;;;;;;31.40;4.50;;;;;;;-146.27;88.35;42609.88;5051747;28;20021;-72
2024/01/25 05:55:23;;;;;;;28.48;4.35;;;;;;;-146.27;87.86;42645.66;5064031;28;20687;-72
2024/01/25 05:57:49;;;;;;;30.52;4.57;;;;;;;-146.27;88.29;42615.84;5070382;28;20043;-72
2024/01/25 06:00:15;;;;;;;32.85;3.90;;;;;;;-146.27;88.39;42615.84;5055942;28;20029;-72
2024/01/25 06:02:43;;;;;;;33.97;4.93;;;;;;;-146.27;88.69;42584.00;5066450;28;20032;-71
2024/01/25 06:05:08;;;;;;;28.23;4.47;;;;;;;-146.27;88.43;42599.94;5058696;28;20033;-72
2024/01/25 06:07:34;;;;;;;30.73;4.40;;;;;;;-146.27;88.37;42609.88;5063123;28;20097;-72
2024/01/25 06:09:59;;;;;;;26.02;4.82;;;;;;;-146.27;88.60;42623.78;5065818;28;20438;-71
2024/01/25 06:12:25;;;;;;;44.33;6.13;;;;;;;-146.27;88.67;42595.94;5053365;28;20382;-72
2024/01/25 06:14:52;;;;;;;29.90;6.38;;;;;;;-146.27;88.24;42625.78;5054668;28;20433;-72
2024/01/25 06:17:17;;;;;;;33.03;4.15;;;;;;;-146.27;88.15;42649.66;5066041;28;20109;-72
2024/01/25 06:19:43;;;;;;;37.47;5.53;;;;;;;-146.27;88.29;42635.72;5060183;28;20029;-71
2024/01/25 06:22:08;;;;;;;37.75;4.53;;;;;;;-146.27;88.10;42679.47;5061961;28;20847;-72
2024/01/25 06:24:33;;;;;;;28.45;4.38;;;;;;;-146.27;88.62;42645.66;5066040;28;20515;-72
2024/01/25 06:26:59;;;;;;;29.05;4.57;;;;;;;-146.27;88.24;42667.53;5070356;28;20052;-72
2024/01/25 06:29:24;;;;;;;25.50;4.10;;;;;;;-146.27;88.35;42693.41;5065370;28;20093;-71
2024/01/25 06:31:49;;;;;;;24.75;5.07;;;;;;;-146.27;88.44;42651.63;5069783;28;20028;-71
2024/01/25 06:34:15;;;;;;;24.35;5.45;;;;;;;-146.27;88.76;42649.66;5064235;28;20504;-72
2024/01/25 06:36:40;;;;;;;33.70;5.35;;;;;;;-146.27;88.98;42667.53;5057509;28;20032;-72
2024/01/25 06:39:06;;;;;;;26.38;5.55;;;;;;;-146.27;88.66;42645.66;5057169;28;20016;-71
2024/01/25 06:41:31;;;;;;;34.38;4.65;;;;;;;-146.27;88.40;42685.44;5055796;28;20047;-72
2024/01/25 06:43:57;;;;;;;33.53;5.05;;;;;;;-146.27;88.51;42639.69;5064770;28;20104;-71
2024/01/25 06:46:22;;;;;;;38.08;5.50;;;;;;;-146.27;88.73;42611.84;5051652;28;20021;-72
2024/01/25 06:48:50;;;;;;;37.30;5.57;;;;;;;-146.27;88.99;42564.13;5066963;28;20128;-72
2024/01/25 06:51:15;;;;;;;36.72;5.30;;;;;;;-146.27;89.45;42568.09;5069716;28;20039;-72
2024/01/25 06:53:41;;;;;;;35.42;4.95;;;;;;;-146.27;89.57;42520.38;5063293;28;20056;-73
2024/01/25 06:56:06;;;;;;;41.72;6.35;;;;;;;-146.27;90.15;42476.63;5065147;28;20024;-72
2024/01/25 06:58:32;;;;;;;30.10;5.15;;;;;;;-146.27;89.73;42490.53;5059069;28;20039;-73
2024/01/25 07:00:57;;;;;;;43.25;5.47;;;;;;;-146.27;89.70;42478.59;5065399;28;20032;-73
2024/01/25 07:03:22;;;;;;;27.15;4.82;;;;;;;-146.27;89.22;42498.50;5081087;28;20069;-72
2024/01/25 07:05:48;;;;;;;27.55;5.72;;;;;;;-146.27;89.32;42520.38;5079442;28;20411;-71
2024/01/25 07:08:13;;;;;;;29.67;5.30;;;;;;;-146.27;89.34;42492.53;5068505;28;20036;-72
2024/01/25 07:10:42;;;;;;;34.45;6.63;;;;;;;-146.27;89.28;42480.59;5062821;28;20111;-72
2024/01/25 07:13:07;;;;;;;41.38;5.43;;;;;;;-146.27;89.72;42490.53;5062619;28;20488;-72
2024/01/25 07:15:33;;;;;;;32.95;4.68;;;;;;;-146.27;89.45;42462.69;5063689;28;20032;-72
2024/01/25 07:17:58;;;;;;;43.30;6.45;;;;;;;-146.27;89.96;42460.72;5068518;28;20028;-71
2024/01/25 07:20:23;;;;;;;30.40;4.80;;;;;;;-146.27;90.10;42436.84;5067566;28;20071;-72
2024/01/25 07:22:49;;;;;;;39.78;6.18;;;;;;;-146.27;89.96;42464.69;5070133;28;20111;-72
2024/01/25 07:25:14;;;;;;;34.20;6.75;;;;;;;-146.27;90.48;42418.94;5070417;28;20025;-72
2024/01/25 07:27:43;;;;;;;52.33;7.03;;;;;;;-146.27;90.60;42387.13;5077675;28;20062;-73
2024/01/25 07:30:09;;;;;;;40.78;5.72;;;;;;;-146.27;90.21;42401.06;5068397;28;20444;-72
2024/01/25 07:32:35;;;;;;;45.30;6.35;;;;;;;-146.27;89.84;42371.22;5068576;28;20666;-72
2024/01/25 07:35:01;;;;;;;33.55;5.35;;;;;;;-146.27;90.10;42389.13;5068784;28;20032;-71
2024/01/25 07:37:26;;;;;;;46.58;5.75;;;;;;;-146.27;90.23;42411.00;5069399;28;20460;-71
2024/01/25 07:39:51;;;;;;;36.50;5.53;;;;;;;-146.27;90.40;42387.13;5070027;28;20457;-73
2024/01/25 07:42:17;;;;;;;48.45;6.70;;;;;;;-146.27;90.41;42401.06;5072051;28;20024;-72
2024/01/25 07:44:43;;;;;;;37.58;5.78;;;;;;;-146.27;90.38;42428.88;5073760;28;20025;-71
2024/01/25 07:47:08;;;;;;;44.30;5.90;;;;;;;-146.27;90.04;42422.94;5073727;28;20477;-71
2024/01/25 07:49:34;;;;;;;30.27;5.05;;;;;;;-146.27;89.99;42456.72;5073826;28;20074;-73
2024/01/25 07:51:59;;;;;;;36.83;6.43;;;;;;;-146.27;89.92;42468.66;5071582;28;20020;-71
2024/01/25 07:54:24;;;;;;;49.38;6.38;;;;;;;-146.27;89.73;42500.47;5072656;28;20066;-73
2024/01/25 07:56:50;;;;;;;37.58;5.82;;;;;;;-146.27;90.06;42504.47;5073251;28;20052;-72
2024/01/25 07:59:15;;;;;;;51.10;6.55;;;;;;;-146.27;90.18;42498.50;5073734;28;20115;-72
2024/01/25 08:01:41;;;;;;;26.30;5.50;;;;;;;-146.27;90.35;42530.31;5077412;28;20493;-71
2024/01/25 08:04:06;;;;;;;25.27;5.32;;;;;;;-146.27;90.16;42568.09;5093790;28;20484;-70
2024/01/25 08:06:32;;;;;;;27.00;5.93;;;;;;;-146.27;90.42;42564.13;5093667;28;20023;-72
2024/01/25 08:08:57;;;;;;;32.70;5.63;;;;;;;-146.27;90.61;42578.03;5073773;28;20507;-72
2024/01/25 08:11:23;;;;;;;36.55;7.07;;;;;;;-146.27;90.47;42574.06;5073575;28;20103;-72
2024/01/25 08:13:49;;;;;;;38.42;6.40;;;;;;;-146.27;90.20;42595.94;5073213;28;20362;-72
2024/01/25 08:16:18;;;;;;;37.15;6.28;;;;;;;-146.27;89.96;42619.81;5073299;28;20035;-72
2024/01/25 08:18:44;;;;;;;28.50;5.00;;;;;;;-146.27;90.05;42641.69;5072192;28;20036;-71
2024/01/25 08:21:11;;;;;;;46.38;6.45;;;;;;;-146.27;90.11;42663.56;5073185;28;20029;-70
2024/01/25 08:23:37;;;;;;;23.52;5.07;;;;;;;-146.27;89.77;42653.63;5069609;28;20032;-71
2024/01/25 08:26:02;;;;;;;41.95;6.03;;;;;;;-146.27;89.72;42657.59;5071755;28;20020;-71
2024/01/25 08:28:27;;;;;;;51.28;6.85;;;;;;;-146.27;89.82;42663.56;5073002;28;20054;-72
2024/01/25 08:30:53;;;;;;;25.58;4.70;;;;;;;-146.27;90.06;42657.59;5073014;28;20473;-71
2024/01/25 08:33:18;;;;;;;29.40;6.75;;;;;;;-146.27;89.84;42701.34;5072919;28;20028;-72
2024/01/25 08:35:44;;;;;;;34.42;5.82;;;;;;;-146.27;90.17;42671.53;5073149;28;20017;-72
2024/01/25 08:38:09;;;;;;;20.92;5.38;;;;;;;-146.27;89.94;42665.56;5071214;28;20026;-71
2024/01/25 08:40:34;;;;;;;38.75;6.40;;;;;;;-146.27;90.13;42683.47;5072837;28;20028;-71
2024/01/25 08:43:00;;;;;;;38.00;5.78;;;;;;;-146.27;90.03;42685.44;5073318;28;20032;-71
2024/01/25 08:45:25;;;;;;;42.45;6.78;;;;;;;-146.27;90.07;42695.38;5072823;28;20464;-72
2024/01/25 08:47:52;;;;;;;44.63;6.78;;;;;;;-146.27;90.36;42689.41;5072676;28;20233;-72
2024/01/25 08:50:17;;;;;;;50.53;8.48;;;;;;;-146.27;90.37;42659.59;5072591;28;20020;-72
2024/01/25 08:52:43;;;;;;;45.00;7.28;;;;;;;-146.27;90.08;42671.53;5070179;28;20107;-72
2024/01/25 08:55:11;;;;;;;36.92;5.72;;;;;;;-146.27;89.77;42679.47;5084828;28;20020;-72
2024/01/25 08:57:37;;;;;;;34.28;6.30;;;;;;;-146.27;89.94;42679.47;5092764;28;20147;-71
2024/01/25 09:00:08;;;;;;;43.28;5.65;;;;;;;-146.27;89.72;42733.19;5092677;28;20028;-71
2024/01/25 09:02:34;;;;;;;39.28;5.88;;;;;;;-146.27;89.91;42683.47;5092703;28;20024;-72
2024/01/25 09:04:59;;;;;;;54.20;6.93;;;;;;;-146.27;89.58;42659.59;5092786;28;20112;-71
2024/01/25 09:07:25;;;;;;;37.88;6.28;;;;;;;-146.27;89.65;42653.63;5088359;28;20024;-72
2024/01/25 09:09:50;;;;;;;38.92;7.10;;;;;;;-146.27;88.99;42649.66;5072403;28;20029;-72
2024/01/25 09:12:16;;;;;;;30.52;6.00;;;;;;;-146.27;88.98;42667.53;5072394;28;20051;-72
2024/01/25 09:14:42;;;;;;;33.33;7.47;;;;;;;-146.27;89.22;42691.41;5072359;28;20055;-71
2024/01/25 09:17:08;;;;;;;39.20;6.80;;;;;;;-146.27;88.51;42657.59;5072182;28;20016;-73
2024/01/25 09:19:34;;;;;;;28.08;6.32;;;;;;;-146.27;88.11;42651.63;5072072;28;20031;-73
2024/01/25 09:22:03;;;;;;;39.40;7.55;;;;;;;-146.27;87.91;42665.56;5071577;28;20028;-72
2024/01/25 09:24:29;;;;;;;39.83;7.97;;;;;;;-146.27;87.72;42685.44;5077341;28;20024;-72
2024/01/25 09:26:55;;;;;;;57.10;8.60;;;;;;;-146.27;87.40;42681.47;5075204;28;20063;-72
2024/01/25 09:29:21;;;;;;;32.38;8.70;;;;;;;-146.27;87.29;42685.44;5082267;28;20044;-72
2024/01/25 09:31:46;;;;;;;54.80;8.65;;;;;;;-146.27;87.24;42749.09;5092053;28;20026;-72
2024/01/25 09:34:11;;;;;;;33.05;7.35;;;;;;;-146.27;87.16;42723.22;5075675;28;20052;-73
2024/01/25 09:36:37;;;;;;;42.97;9.50;;;;;;;-146.27;87.03;42715.28;5071240;28;20365;-72
2024/01/25 09:39:03;;;;;;;38.47;8.55;;;;;;;-146.27;86.92;42723.22;5070694;28;20021;-72
2024/01/25 09:41:29;;;;;;;43.83;7.97;;;;;;;-146.27;86.95;42747.09;5071201;28;20020;-73
2024/01/25 09:43:54;;;;;;;38.67;7.53;;;;;;;-146.27;86.92;42703.34;5071406;28;20405;-73
2024/01/25 09:46:21;;;;;;;36.15;8.48;;;;;;;-146.27;86.87;42703.34;5071588;28;20523;-72
2024/01/25 09:48:47;;;;;;;39.85;7.65;;;;;;;-146.27;87.07;42703.34;5069163;28;20028;-72
2024/01/25 09:51:13;;;;;;;33.47;7.70;;;;;;;-146.27;86.51;42691.41;5070152;28;20050;-73
2024/01/25 09:53:40;;;;;;;33.90;7.75;;;;;;;-146.27;86.29;42729.19;5069507;28;20028;-76
2024/01/25 09:56:08;;;;;;;41.92;7.72;;;;;;;-146.27;85.99;42715.28;5079428;28;20020;-72
2024/01/25 09:58:47;;;;;;;48.47;6.53;;;;;;;-146.27;86.01;42727.22;5091432;28;20032;-72
2024/01/25 10:01:14;;;;;;;23.48;6.00;;;;;;;-146.27;85.89;42822.69;5090438;28;20091;-72
2024/01/25 10:03:44;;;;;;;43.47;7.25;;;;;;;-146.27;85.69;42782.91;5091168;28;20028;-71
2024/01/25 10:06:11;;;;;;;32.15;5.72;;;;;;;-146.27;85.15;42846.53;5090752;28;20024;-71
2024/01/25 10:08:36;;;;;;;32.15;6.90;;;;;;;-146.27;85.42;42912.19;5091479;28;20024;-72
2024/01/25 10:11:02;;;;;;;31.23;5.40;;;;;;;-146.27;85.64;42870.41;5077070;28;20054;-72
2024/01/25 10:13:28;;;;;;;30.63;5.40;;;;;;;-146.27;85.72;42816.72;5070294;28;20033;-72
2024/01/25 10:15:54;;;;;;;29.38;6.00;;;;;;;-146.27;85.45;42798.81;5069248;28;20530;-72
2024/01/25 10:18:19;;;;;;;29.10;5.03;;;;;;;-146.27;85.17;42866.44;5070105;28;20458;-72
2024/01/25 10:20:45;;;;;;;32.70;6.25;;;;;;;-146.27;85.26;42822.69;5069485;28;20036;-72
2024/01/25 10:23:10;;;;;;;35.80;5.75;;;;;;;-146.27;86.15;42818.69;5070201;28;20116;-72
2024/01/25 10:25:37;;;;;;;30.25;5.00;;;;;;;-146.27;85.25;42798.81;5069616;28;20032;-72
2024/01/25 10:28:05;;;;;;;29.33;5.82;;;;;;;-146.27;84.93;42810.75;5070015;28;20061;-72
2024/01/25 10:30:35;;;;;;;38.05;6.80;;;;;;;-146.27;84.72;42852.50;5069993;28;20488;-72
2024/01/25 10:33:02;;;;;;;35.67;7.00;;;;;;;-146.27;84.69;42836.59;5069227;28;20041;-71
2024/01/25 10:35:30;;;;;;;32.63;6.90;;;;;;;-146.27;84.93;42856.50;5069770;28;20032;-72
2024/01/25 10:37:55;;;;;;;38.72;6.57;;;;;;;-146.27;85.24;42866.44;5069961;28;20743;-71
2024/01/25 10:40:22;;;;;;;29.13;6.15;;;;;;;-146.27;85.64;42854.50;5069494;28;20035;-73
2024/01/25 10:42:48;;;;;;;31.20;6.18;;;;;;;-146.27;86.07;42798.81;5069441;28;20035;-71
2024/01/25 10:45:14;;;;;;;37.08;6.85;;;;;;;-146.27;84.96;42834.59;5069136;28;20032;-72
2024/01/25 10:47:44;;;;;;;30.65;5.30;;;;;;;-146.27;84.75;42858.47;5066858;28;20373;-71
2024/01/25 10:50:13;;;;;;;42.42;6.97;;;;;;;-146.27;85.21;42852.50;5070252;28;20028;-72
2024/01/25 10:52:40;;;;;;;39.05;6.38;;;;;;;-146.27;84.89;42822.69;5070086;28;20055;-70
2024/01/25 10:55:07;;;;;;;39.40;6.20;;;;;;;-146.27;84.75;42850.53;5071406;28;20058;-72
2024/01/25 10:57:40;;;;;;;21.88;4.03;;;;;;;-146.27;84.88;42822.69;5061905;28;20552;-72
2024/01/25 11:00:09;;;;;;;37.20;5.95;;;;;;;-146.27;84.05;42888.31;5054337;28;20116;-72
2024/01/25 11:02:35;;;;;;;38.58;7.05;;;;;;;-146.27;84.45;42862.47;5068523;28;20037;-71